sensor_id;sensor_type;location;lat;lon;timestamp;P1;durP1;ratioP1;P2;durP2;ratioP2
8626;SDS011;4351;51.422;6.794;2023-09-08T00:02:27;9.50;;;5.60;;
8626;SDS011;4351;51.422;6.794;2023-09-08T00:05:13;9.00;;;5.60;;
8626;SDS011;4351;51.422;6.794;2023-09-08T00:07:57;8.85;;;5.40;;
8626;SDS011;4351;51.422;6.794;2023-09-08T00:10:43;6.20;;;5.50;;
8626;SDS011;4351;51.422;6.794;2023-09-08T00:13:26;8.50;;;5.70;;
8626;SDS011;4351;51.422;6.794;2023-09-08T00:16:06;7.00;;;5.40;;
8626;SDS011;4351;51.422;6.794;2023-09-08T00:18:50;5.70;;;5.10;;
8626;SDS011;4351;51.422;6.794;2023-09-08T00:21:34;5.80;;;5.20;;
8626;SDS011;4351;51.422;6.794;2023-09-08T00:24:09;6.80;;;5.10;;
8626;SDS011;4351;51.422;6.794;2023-09-08T00:26:46;6.67;;;5.00;;
8626;SDS011;4351;51.422;6.794;2023-09-08T00:29:25;6.07;;;5.27;;
8626;SDS011;4351;51.422;6.794;2023-09-08T00:32:04;5.70;;;5.10;;
8626;SDS011;4351;51.422;6.794;2023-09-08T00:34:34;7.15;;;5.25;;
8626;SDS011;4351;51.422;6.794;2023-09-08T00:37:04;6.33;;;5.10;;
8626;SDS011;4351;51.422;6.794;2023-09-08T00:39:37;6.05;;;5.45;;
8626;SDS011;4351;51.422;6.794;2023-09-08T00:42:17;7.30;;;5.30;;
8626;SDS011;4351;51.422;6.794;2023-09-08T00:45:02;8.10;;;5.90;;
8626;SDS011;4351;51.422;6.794;2023-09-08T00:47:39;6.75;;;5.25;;
8626;SDS011;4351;51.422;6.794;2023-09-08T00:50:08;6.70;;;5.10;;
8626;SDS011;4351;51.422;6.794;2023-09-08T01:03:08;8.40;;;5.20;;
8626;SDS011;4351;51.422;6.794;2023-09-08T01:35:23;6.70;;;5.60;;
8626;SDS011;4351;51.422;6.794;2023-09-08T12:42:35;5.70;;;5.10;;
8626;SDS011;4351;51.422;6.794;2023-09-08T12:50:50;7.00;;;5.35;;
8626;SDS011;4351;51.422;6.794;2023-09-08T12:56:14;6.25;;;5.65;;
8626;SDS011;4351;51.422;6.794;2023-09-08T13:09:34;6.70;;;5.20;;
8626;SDS011;4351;51.422;6.794;2023-09-08T13:12:16;6.30;;;5.70;;
8626;SDS011;4351;51.422;6.794;2023-09-08T13:14:50;6.67;;;5.50;;
8626;SDS011;4351;51.422;6.794;2023-09-08T13:17:22;8.95;;;5.40;;
8626;SDS011;4351;51.422;6.794;2023-09-08T13:20:03;6.40;;;5.30;;
8626;SDS011;4351;51.422;6.794;2023-09-08T13:22:36;8.10;;;5.40;;
8626;SDS011;4351;51.422;6.794;2023-09-08T13:25:15;5.80;;;5.20;;
8626;SDS011;4351;51.422;6.794;2023-09-08T13:27:50;6.90;;;5.00;;
8626;SDS011;4351;51.422;6.794;2023-09-08T13:30:23;5.95;;;5.10;;
8626;SDS011;4351;51.422;6.794;2023-09-08T13:33:04;6.13;;;5.53;;
8626;SDS011;4351;51.422;6.794;2023-09-08T13:35:45;7.45;;;5.55;;
8626;SDS011;4351;51.422;6.794;2023-09-08T13:38:26;7.15;;;5.45;;
8626;SDS011;4351;51.422;6.794;2023-09-08T13:41:04;8.10;;;5.80;;
8626;SDS011;4351;51.422;6.794;2023-09-08T13:43:44;9.60;;;5.60;;
8626;SDS011;4351;51.422;6.794;2023-09-08T13:59:47;7.30;;;5.80;;
8626;SDS011;4351;51.422;6.794;2023-09-08T14:02:22;10.10;;;6.00;;
8626;SDS011;4351;51.422;6.794;2023-09-08T14:04:57;9.00;;;6.03;;
8626;SDS011;4351;51.422;6.794;2023-09-08T14:13:04;7.57;;;5.60;;
8626;SDS011;4351;51.422;6.794;2023-09-08T14:15:50;7.70;;;5.50;;
8626;SDS011;4351;51.422;6.794;2023-09-08T14:18:37;8.40;;;5.80;;
8626;SDS011;4351;51.422;6.794;2023-09-08T14:21:13;8.40;;;5.70;;
8626;SDS011;4351;51.422;6.794;2023-09-08T14:23:58;8.53;;;5.53;;
8626;SDS011;4351;51.422;6.794;2023-09-08T14:26:29;7.00;;;5.30;;
8626;SDS011;4351;51.422;6.794;2023-09-08T14:31:44;7.70;;;5.50;;
8626;SDS011;4351;51.422;6.794;2023-09-08T14:39:21;9.30;;;6.35;;
8626;SDS011;4351;51.422;6.794;2023-09-08T14:44:41;6.20;;;5.60;;
8626;SDS011;4351;51.422;6.794;2023-09-08T14:47:26;11.30;;;6.30;;
8626;SDS011;4351;51.422;6.794;2023-09-08T14:52:45;14.77;;;9.70;;
8626;SDS011;4351;51.422;6.794;2023-09-08T14:55:25;14.40;;;9.40;;
8626;SDS011;4351;51.422;6.794;2023-09-08T15:03:23;7.05;;;5.70;;
8626;SDS011;4351;51.422;6.794;2023-09-08T15:06:10;7.35;;;5.85;;
8626;SDS011;4351;51.422;6.794;2023-09-08T15:08:45;8.05;;;5.80;;
8626;SDS011;4351;51.422;6.794;2023-09-08T15:11:20;9.10;;;5.75;;
8626;SDS011;4351;51.422;6.794;2023-09-08T15:13:51;7.00;;;5.50;;
8626;SDS011;4351;51.422;6.794;2023-09-08T15:16:27;6.67;;;5.40;;
8626;SDS011;4351;51.422;6.794;2023-09-08T15:19:05;6.07;;;5.47;;
8626;SDS011;4351;51.422;6.794;2023-09-08T15:21:52;5.75;;;5.15;;
8626;SDS011;4351;51.422;6.794;2023-09-08T15:24:33;8.90;;;5.90;;
8626;SDS011;4351;51.422;6.794;2023-09-08T15:27:11;7.40;;;5.40;;
8626;SDS011;4351;51.422;6.794;2023-09-08T15:32:30;6.90;;;5.60;;
8626;SDS011;4351;51.422;6.794;2023-09-08T15:35:11;8.70;;;5.60;;
8626;SDS011;4351;51.422;6.794;2023-09-08T15:37:59;11.30;;;6.10;;
8626;SDS011;4351;51.422;6.794;2023-09-08T15:40:36;7.90;;;6.10;;
8626;SDS011;4351;51.422;6.794;2023-09-08T15:43:07;8.27;;;5.70;;
8626;SDS011;4351;51.422;6.794;2023-09-08T15:45:49;9.03;;;5.33;;
8626;SDS011;4351;51.422;6.794;2023-09-08T15:48:29;8.00;;;5.60;;
8626;SDS011;4351;51.422;6.794;2023-09-08T15:51:13;9.43;;;5.63;;
8626;SDS011;4351;51.422;6.794;2023-09-08T15:53:54;9.27;;;5.80;;
8626;SDS011;4351;51.422;6.794;2023-09-08T15:56:30;9.73;;;5.93;;
8626;SDS011;4351;51.422;6.794;2023-09-08T15:59:13;7.43;;;5.77;;
8626;SDS011;4351;51.422;6.794;2023-09-08T16:01:55;7.87;;;5.50;;
8626;SDS011;4351;51.422;6.794;2023-09-08T16:04:35;7.33;;;5.00;;
8626;SDS011;4351;51.422;6.794;2023-09-08T16:07:20;8.70;;;5.53;;
8626;SDS011;4351;51.422;6.794;2023-09-08T16:10:04;6.67;;;5.43;;
8626;SDS011;4351;51.422;6.794;2023-09-08T16:12:46;6.47;;;5.20;;
8626;SDS011;4351;51.422;6.794;2023-09-08T16:15:31;7.45;;;6.60;;
8626;SDS011;4351;51.422;6.794;2023-09-08T16:18:06;11.20;;;6.50;;
8626;SDS011;4351;51.422;6.794;2023-09-08T16:20:36;12.73;;;8.63;;
8626;SDS011;4351;51.422;6.794;2023-09-08T16:23:09;9.67;;;7.27;;
8626;SDS011;4351;51.422;6.794;2023-09-08T16:25:51;10.43;;;6.27;;
8626;SDS011;4351;51.422;6.794;2023-09-08T16:28:28;9.57;;;6.20;;
8626;SDS011;4351;51.422;6.794;2023-09-08T16:31:03;10.17;;;6.30;;
8626;SDS011;4351;51.422;6.794;2023-09-08T16:33:48;8.13;;;6.10;;
8626;SDS011;4351;51.422;6.794;2023-09-08T16:36:26;5.93;;;5.33;;
8626;SDS011;4351;51.422;6.794;2023-09-08T16:39:11;9.95;;;6.30;;
8626;SDS011;4351;51.422;6.794;2023-09-08T16:41:57;8.17;;;6.50;;
8626;SDS011;4351;51.422;6.794;2023-09-08T16:44:41;8.63;;;6.20;;
8626;SDS011;4351;51.422;6.794;2023-09-08T16:47:23;8.20;;;6.17;;
8626;SDS011;4351;51.422;6.794;2023-09-08T16:50:05;7.80;;;6.07;;
8626;SDS011;4351;51.422;6.794;2023-09-08T16:52:46;8.90;;;6.10;;
8626;SDS011;4351;51.422;6.794;2023-09-08T16:55:30;7.30;;;6.20;;
8626;SDS011;4351;51.422;6.794;2023-09-08T16:58:16;7.40;;;5.80;;
8626;SDS011;4351;51.422;6.794;2023-09-08T17:00:53;7.57;;;5.77;;
8626;SDS011;4351;51.422;6.794;2023-09-08T17:03:35;8.75;;;6.20;;
8626;SDS011;4351;51.422;6.794;2023-09-08T17:06:18;8.25;;;6.40;;
8626;SDS011;4351;51.422;6.794;2023-09-08T17:08:59;8.50;;;6.63;;
8626;SDS011;4351;51.422;6.794;2023-09-08T17:11:41;9.10;;;6.40;;
8626;SDS011;4351;51.422;6.794;2023-09-08T17:14:19;6.50;;;5.80;;
8626;SDS011;4351;51.422;6.794;2023-09-08T17:17:00;10.20;;;6.90;;
8626;SDS011;4351;51.422;6.794;2023-09-08T17:19:39;6.50;;;5.80;;
8626;SDS011;4351;51.422;6.794;2023-09-08T17:22:19;9.23;;;6.50;;
8626;SDS011;4351;51.422;6.794;2023-09-08T17:25:02;7.40;;;6.67;;
8626;SDS011;4351;51.422;6.794;2023-09-08T17:27:46;9.30;;;6.80;;
8626;SDS011;4351;51.422;6.794;2023-09-08T17:30:29;8.30;;;5.90;;
8626;SDS011;4351;51.422;6.794;2023-09-08T17:33:14;9.70;;;6.20;;
8626;SDS011;4351;51.422;6.794;2023-09-08T17:38:41;8.00;;;6.40;;
8626;SDS011;4351;51.422;6.794;2023-09-08T17:41:26;7.70;;;6.60;;
8626;SDS011;4351;51.422;6.794;2023-09-08T17:44:01;10.70;;;6.80;;
8626;SDS011;4351;51.422;6.794;2023-09-08T17:46:30;7.90;;;6.65;;
8626;SDS011;4351;51.422;6.794;2023-09-08T17:49:07;8.50;;;6.60;;
8626;SDS011;4351;51.422;6.794;2023-09-08T17:51:45;10.80;;;7.20;;
8626;SDS011;4351;51.422;6.794;2023-09-08T18:34:38;7.10;;;6.30;;
8626;SDS011;4351;51.422;6.794;2023-09-08T19:25:10;11.70;;;8.90;;
8626;SDS011;4351;51.422;6.794;2023-09-08T22:01:18;10.80;;;8.30;;
8626;SDS011;4351;51.422;6.794;2023-09-08T22:06:46;12.65;;;9.15;;
8626;SDS011;4351;51.422;6.794;2023-09-08T22:09:24;10.55;;;9.45;;
8626;SDS011;4351;51.422;6.794;2023-09-08T22:12:14;10.65;;;8.05;;
8626;SDS011;4351;51.422;6.794;2023-09-08T22:31:16;11.60;;;8.80;;
8626;SDS011;4351;51.422;6.794;2023-09-08T22:41:51;9.90;;;8.90;;
8626;SDS011;4351;51.422;6.794;2023-09-08T23:27:44;8.10;;;7.30;;
8626;SDS011;4351;51.422;6.794;2023-09-08T23:30:31;9.10;;;7.50;;
8626;SDS011;4351;51.422;6.794;2023-09-08T23:33:19;7.80;;;7.00;;
8626;SDS011;4351;51.422;6.794;2023-09-08T23:36:01;10.15;;;7.60;;
8626;SDS011;4351;51.422;6.794;2023-09-08T23:57:02;8.03;;;7.07;;
8626;SDS011;4351;51.422;6.794;2023-09-08T23:59:41;7.83;;;7.00;;
